sensor_id;sensor_type;location;lat;lon;timestamp;pressure;altitude;pressure_sealevel;temperature
55038;BMP280;40937;53.594;10.034;2023-08-06T00:02:18;100942.16;;;18.48
55038;BMP280;40937;53.594;10.034;2023-08-06T00:04:47;100939.41;;;18.53
55038;BMP280;40937;53.594;10.034;2023-08-06T00:07:14;100933.69;;;18.41
55038;BMP280;40937;53.594;10.034;2023-08-06T00:09:41;100935.22;;;18.47
55038;BMP280;40937;53.594;10.034;2023-08-06T00:12:09;100934.66;;;18.50
55038;BMP280;40937;53.594;10.034;2023-08-06T00:14:36;100931.84;;;18.41
55038;BMP280;40937;53.594;10.034;2023-08-06T00:17:03;100931.59;;;18.38
55038;BMP280;40937;53.594;10.034;2023-08-06T00:19:31;100931.91;;;18.31
55038;BMP280;40937;53.594;10.034;2023-08-06T00:22:00;100923.19;;;18.26
55038;BMP280;40937;53.594;10.034;2023-08-06T00:24:27;100925.78;;;18.31
55038;BMP280;40937;53.594;10.034;2023-08-06T00:26:55;100920.38;;;18.12
55038;BMP280;40937;53.594;10.034;2023-08-06T00:29:22;100915.91;;;18.02
55038;BMP280;40937;53.594;10.034;2023-08-06T00:31:49;100910.25;;;18.09
55038;BMP280;40937;53.594;10.034;2023-08-06T00:34:17;100908.88;;;18.11
55038;BMP280;40937;53.594;10.034;2023-08-06T00:36:44;100911.09;;;17.99
55038;BMP280;40937;53.594;10.034;2023-08-06T00:39:13;100897.25;;;17.97
55038;BMP280;40937;53.594;10.034;2023-08-06T00:41:40;100901.97;;;18.05
55038;BMP280;40937;53.594;10.034;2023-08-06T00:44:08;100899.88;;;18.02
55038;BMP280;40937;53.594;10.034;2023-08-06T00:46:35;100905.19;;;18.07
55038;BMP280;40937;53.594;10.034;2023-08-06T00:49:03;100899.94;;;17.97
55038;BMP280;40937;53.594;10.034;2023-08-06T00:51:31;100897.75;;;17.99
55038;BMP280;40937;53.594;10.034;2023-08-06T00:53:59;100896.69;;;18.00
55038;BMP280;40937;53.594;10.034;2023-08-06T00:56:28;100889.66;;;18.09
55038;BMP280;40937;53.594;10.034;2023-08-06T00:58:56;100879.03;;;18.04
55038;BMP280;40937;53.594;10.034;2023-08-06T01:01:23;100876.41;;;17.99
55038;BMP280;40937;53.594;10.034;2023-08-06T01:03:51;100863.91;;;17.94
55038;BMP280;40937;53.594;10.034;2023-08-06T01:06:19;100870.00;;;18.00
55038;BMP280;40937;53.594;10.034;2023-08-06T01:08:55;100860.66;;;18.02
55038;BMP280;40937;53.594;10.034;2023-08-06T01:11:33;100867.38;;;17.95
55038;BMP280;40937;53.594;10.034;2023-08-06T01:14:08;100868.53;;;17.89
55038;BMP280;40937;53.594;10.034;2023-08-06T01:16:37;100868.59;;;17.84
55038;BMP280;40937;53.594;10.034;2023-08-06T01:19:15;100858.69;;;17.84
55038;BMP280;40937;53.594;10.034;2023-08-06T01:21:44;100862.44;;;17.83
55038;BMP280;40937;53.594;10.034;2023-08-06T01:24:12;100852.94;;;18.01
55038;BMP280;40937;53.594;10.034;2023-08-06T01:26:45;100847.59;;;18.01
55038;BMP280;40937;53.594;10.034;2023-08-06T01:29:17;100846.06;;;17.90
55038;BMP280;40937;53.594;10.034;2023-08-06T01:31:47;100838.34;;;17.88
55038;BMP280;40937;53.594;10.034;2023-08-06T01:34:17;100831.78;;;17.80
55038;BMP280;40937;53.594;10.034;2023-08-06T01:36:50;100833.34;;;17.81
55038;BMP280;40937;53.594;10.034;2023-08-06T01:39:18;100839.25;;;17.78
55038;BMP280;40937;53.594;10.034;2023-08-06T01:41:46;100834.75;;;17.79
55038;BMP280;40937;53.594;10.034;2023-08-06T01:44:14;100835.44;;;17.85
55038;BMP280;40937;53.594;10.034;2023-08-06T01:46:42;100833.59;;;17.85
55038;BMP280;40937;53.594;10.034;2023-08-06T01:49:09;100833.13;;;17.78
55038;BMP280;40937;53.594;10.034;2023-08-06T01:51:37;100830.69;;;17.81
55038;BMP280;40937;53.594;10.034;2023-08-06T01:54:06;100821.63;;;17.83
55038;BMP280;40937;53.594;10.034;2023-08-06T01:56:34;100821.88;;;17.81
55038;BMP280;40937;53.594;10.034;2023-08-06T01:59:01;100812.06;;;17.76
55038;BMP280;40937;53.594;10.034;2023-08-06T02:01:28;100810.16;;;17.82
55038;BMP280;40937;53.594;10.034;2023-08-06T02:03:56;100809.97;;;17.73
55038;BMP280;40937;53.594;10.034;2023-08-06T02:06:23;100810.28;;;17.67
55038;BMP280;40937;53.594;10.034;2023-08-06T02:08:50;100807.44;;;17.58
55038;BMP280;40937;53.594;10.034;2023-08-06T02:11:22;100804.81;;;17.53
55038;BMP280;40937;53.594;10.034;2023-08-06T02:13:50;100804.53;;;17.49
55038;BMP280;40937;53.594;10.034;2023-08-06T02:16:18;100801.31;;;17.57
55038;BMP280;40937;53.594;10.034;2023-08-06T02:18:46;100807.19;;;17.54
55038;BMP280;40937;53.594;10.034;2023-08-06T02:21:15;100804.25;;;17.56
55038;BMP280;40937;53.594;10.034;2023-08-06T02:23:42;100805.75;;;17.67
55038;BMP280;40937;53.594;10.034;2023-08-06T02:26:13;100796.41;;;17.65
55038;BMP280;40937;53.594;10.034;2023-08-06T02:28:42;100795.59;;;17.64
55038;BMP280;40937;53.594;10.034;2023-08-06T02:31:09;100799.91;;;17.60
55038;BMP280;40937;53.594;10.034;2023-08-06T02:33:37;100793.19;;;17.68
55038;BMP280;40937;53.594;10.034;2023-08-06T02:36:04;100785.50;;;17.61
55038;BMP280;40937;53.594;10.034;2023-08-06T02:38:32;100789.78;;;17.62
55038;BMP280;40937;53.594;10.034;2023-08-06T02:41:02;100784.44;;;17.62
55038;BMP280;40937;53.594;10.034;2023-08-06T02:43:29;100778.56;;;17.60
55038;BMP280;40937;53.594;10.034;2023-08-06T02:45:58;100773.91;;;17.47
55038;BMP280;40937;53.594;10.034;2023-08-06T02:48:26;100771.72;;;17.54
55038;BMP280;40937;53.594;10.034;2023-08-06T02:50:57;100765.38;;;17.45
55038;BMP280;40937;53.594;10.034;2023-08-06T02:53:24;100777.94;;;17.44
55038;BMP280;40937;53.594;10.034;2023-08-06T02:55:52;100766.00;;;17.36
55038;BMP280;40937;53.594;10.034;2023-08-06T02:58:25;100768.34;;;17.43
55038;BMP280;40937;53.594;10.034;2023-08-06T03:01:08;100761.16;;;17.44
55038;BMP280;40937;53.594;10.034;2023-08-06T03:03:44;100758.97;;;17.46
55038;BMP280;40937;53.594;10.034;2023-08-06T03:06:18;100756.34;;;17.40
55038;BMP280;40937;53.594;10.034;2023-08-06T03:08:49;100754.25;;;17.37
55038;BMP280;40937;53.594;10.034;2023-08-06T03:11:16;100753.69;;;17.40
55038;BMP280;40937;53.594;10.034;2023-08-06T03:13:44;100755.25;;;17.42
55038;BMP280;40937;53.594;10.034;2023-08-06T03:16:13;100755.31;;;17.36
55038;BMP280;40937;53.594;10.034;2023-08-06T03:18:40;100756.34;;;17.40
55038;BMP280;40937;53.594;10.034;2023-08-06T03:21:09;100760.13;;;17.34
55038;BMP280;40937;53.594;10.034;2023-08-06T03:23:37;100754.81;;;17.34
55038;BMP280;40937;53.594;10.034;2023-08-06T03:26:06;100753.50;;;17.32
55038;BMP280;40937;53.594;10.034;2023-08-06T03:28:33;100756.09;;;17.42
55038;BMP280;40937;53.594;10.034;2023-08-06T03:31:02;100754.03;;;17.34
55038;BMP280;40937;53.594;10.034;2023-08-06T03:33:43;100751.66;;;17.27
55038;BMP280;40937;53.594;10.034;2023-08-06T03:36:16;100741.53;;;17.29
55038;BMP280;40937;53.594;10.034;2023-08-06T03:38:43;100747.66;;;17.30
55038;BMP280;40937;53.594;10.034;2023-08-06T03:41:13;100735.06;;;17.35
55038;BMP280;40937;53.594;10.034;2023-08-06T03:43:41;100735.09;;;17.30
55038;BMP280;40937;53.594;10.034;2023-08-06T03:46:13;100739.38;;;17.31
55038;BMP280;40937;53.594;10.034;2023-08-06T03:48:41;100733.81;;;17.28
55038;BMP280;40937;53.594;10.034;2023-08-06T03:51:09;100730.94;;;17.19
55038;BMP280;40937;53.594;10.034;2023-08-06T03:53:38;100725.06;;;17.22
55038;BMP280;40937;53.594;10.034;2023-08-06T03:56:06;100728.78;;;17.21
55038;BMP280;40937;53.594;10.034;2023-08-06T03:58:34;100728.03;;;17.15
55038;BMP280;40937;53.594;10.034;2023-08-06T04:01:02;100728.06;;;17.10
55038;BMP280;40937;53.594;10.034;2023-08-06T04:03:39;100727.78;;;17.17
55038;BMP280;40937;53.594;10.034;2023-08-06T04:06:07;100727.00;;;17.11
55038;BMP280;40937;53.594;10.034;2023-08-06T04:08:37;100721.94;;;17.10
55038;BMP280;40937;53.594;10.034;2023-08-06T04:11:05;100727.50;;;17.13
55038;BMP280;40937;53.594;10.034;2023-08-06T04:13:32;100725.06;;;17.22
55038;BMP280;40937;53.594;10.034;2023-08-06T04:16:03;100719.28;;;17.10
55038;BMP280;40937;53.594;10.034;2023-08-06T04:18:32;100719.81;;;17.12
55038;BMP280;40937;53.594;10.034;2023-08-06T04:21:01;100719.28;;;17.10
55038;BMP280;40937;53.594;10.034;2023-08-06T04:23:28;100726.78;;;17.08
55038;BMP280;40937;53.594;10.034;2023-08-06T04:26:01;100729.44;;;17.08
55038;BMP280;40937;53.594;10.034;2023-08-06T04:28:32;100732.06;;;17.13
55038;BMP280;40937;53.594;10.034;2023-08-06T04:31:00;100731.63;;;17.01
55038;BMP280;40937;53.594;10.034;2023-08-06T04:33:29;100727.59;;;16.98
55038;BMP280;40937;53.594;10.034;2023-08-06T04:35:59;100728.44;;;16.93
55038;BMP280;40937;53.594;10.034;2023-08-06T04:38:27;100731.88;;;16.99
55038;BMP280;40937;53.594;10.034;2023-08-06T04:40:55;100733.78;;;16.93
55038;BMP280;40937;53.594;10.034;2023-08-06T04:43:25;100735.38;;;16.94
55038;BMP280;40937;53.594;10.034;2023-08-06T04:45:54;100732.25;;;16.87
55038;BMP280;40937;53.594;10.034;2023-08-06T04:48:21;100734.34;;;16.90
55038;BMP280;40937;53.594;10.034;2023-08-06T04:50:50;100730.00;;;16.99
55038;BMP280;40937;53.594;10.034;2023-08-06T04:53:17;100723.13;;;16.93
55038;BMP280;40937;53.594;10.034;2023-08-06T04:55:45;100726.38;;;16.85
55038;BMP280;40937;53.594;10.034;2023-08-06T04:58:13;100725.38;;;16.81
55038;BMP280;40937;53.594;10.034;2023-08-06T05:00:42;100728.06;;;16.76
55038;BMP280;40937;53.594;10.034;2023-08-06T05:03:09;100724.34;;;16.72
55038;BMP280;40937;53.594;10.034;2023-08-06T05:05:36;100722.16;;;16.79
55038;BMP280;40937;53.594;10.034;2023-08-06T05:08:03;100728.88;;;16.76
55038;BMP280;40937;53.594;10.034;2023-08-06T05:10:31;100725.44;;;16.71
55038;BMP280;40937;53.594;10.034;2023-08-06T05:12:58;100727.56;;;16.69
55038;BMP280;40937;53.594;10.034;2023-08-06T05:15:26;100724.34;;;16.77
55038;BMP280;40937;53.594;10.034;2023-08-06T05:17:55;100728.88;;;16.76
55038;BMP280;40937;53.594;10.034;2023-08-06T05:20:22;100729.66;;;16.77
55038;BMP280;40937;53.594;10.034;2023-08-06T05:22:50;100728.53;;;16.83
55038;BMP280;40937;53.594;10.034;2023-08-06T05:25:17;100729.66;;;16.77
55038;BMP280;40937;53.594;10.034;2023-08-06T05:27:44;100728.31;;;16.80
55038;BMP280;40937;53.594;10.034;2023-08-06T05:30:12;100725.91;;;16.78
55038;BMP280;40937;53.594;10.034;2023-08-06T05:32:39;100731.25;;;16.78
55038;BMP280;40937;53.594;10.034;2023-08-06T05:35:08;100724.34;;;16.77
55038;BMP280;40937;53.594;10.034;2023-08-06T05:37:35;100724.88;;;16.74
55038;BMP280;40937;53.594;10.034;2023-08-06T05:40:03;100722.16;;;16.79
55038;BMP280;40937;53.594;10.034;2023-08-06T05:42:31;100720.03;;;16.81
55038;BMP280;40937;53.594;10.034;2023-08-06T05:44:58;100723.50;;;16.82
55038;BMP280;40937;53.594;10.034;2023-08-06T05:47:25;100722.09;;;16.89
55038;BMP280;40937;53.594;10.034;2023-08-06T05:49:52;100722.09;;;16.89
55038;BMP280;40937;53.594;10.034;2023-08-06T05:52:21;100712.84;;;16.82
55038;BMP280;40937;53.594;10.034;2023-08-06T05:54:48;100717.66;;;16.80
55038;BMP280;40937;53.594;10.034;2023-08-06T05:57:16;100708.00;;;16.84
55038;BMP280;40937;53.594;10.034;2023-08-06T05:59:43;100707.75;;;16.85
55038;BMP280;40937;53.594;10.034;2023-08-06T06:02:11;100709.84;;;16.88
55038;BMP280;40937;53.594;10.034;2023-08-06T06:04:40;100707.22;;;16.83
55038;BMP280;40937;53.594;10.034;2023-08-06T06:07:08;100703.50;;;16.79
55038;BMP280;40937;53.594;10.034;2023-08-06T06:09:36;100701.66;;;16.80
55038;BMP280;40937;53.594;10.034;2023-08-06T06:12:06;100701.34;;;16.86
55038;BMP280;40937;53.594;10.034;2023-08-06T06:14:33;100709.34;;;16.86
55038;BMP280;40937;53.594;10.034;2023-08-06T06:17:00;100713.34;;;16.84
55038;BMP280;40937;53.594;10.034;2023-08-06T06:19:28;100717.34;;;16.86
55038;BMP280;40937;53.594;10.034;2023-08-06T06:21:55;100716.78;;;16.89
55038;BMP280;40937;53.594;10.034;2023-08-06T06:24:24;100709.84;;;16.88
55038;BMP280;40937;53.594;10.034;2023-08-06T06:26:52;100716.22;;;16.92
55038;BMP280;40937;53.594;10.034;2023-08-06T06:29:20;100711.13;;;16.96
55038;BMP280;40937;53.594;10.034;2023-08-06T06:31:47;100709.53;;;16.95
55038;BMP280;40937;53.594;10.034;2023-08-06T06:34:14;100702.88;;;16.97
55038;BMP280;40937;53.594;10.034;2023-08-06T06:36:42;100702.06;;;16.97
55038;BMP280;40937;53.594;10.034;2023-08-06T06:39:09;100701.78;;;16.98
55038;BMP280;40937;53.594;10.034;2023-08-06T06:41:36;100699.59;;;17.06
55038;BMP280;40937;53.594;10.034;2023-08-06T06:44:13;100700.16;;;17.03
55038;BMP280;40937;53.594;10.034;2023-08-06T06:46:40;100695.88;;;17.07
55038;BMP280;40937;53.594;10.034;2023-08-06T06:49:08;100701.69;;;17.09
55038;BMP280;40937;53.594;10.034;2023-08-06T06:51:35;100701.97;;;17.07
55038;BMP280;40937;53.594;10.034;2023-08-06T06:54:02;100700.66;;;17.05
55038;BMP280;40937;53.594;10.034;2023-08-06T06:56:30;100703.06;;;17.06
55038;BMP280;40937;53.594;10.034;2023-08-06T06:58:57;100703.03;;;17.11
55038;BMP280;40937;53.594;10.034;2023-08-06T07:01:25;100704.31;;;17.14
55038;BMP280;40937;53.594;10.034;2023-08-06T07:03:53;100693.63;;;17.19
55038;BMP280;40937;53.594;10.034;2023-08-06T07:06:20;100705.59;;;17.22
55038;BMP280;40937;53.594;10.034;2023-08-06T07:08:47;100697.78;;;17.30
55038;BMP280;40937;53.594;10.034;2023-08-06T07:11:15;100707.47;;;17.21
55038;BMP280;40937;53.594;10.034;2023-08-06T07:13:42;100699.72;;;17.19
55038;BMP280;40937;53.594;10.034;2023-08-06T07:16:09;100702.63;;;17.28
55038;BMP280;40937;53.594;10.034;2023-08-06T07:18:38;100699.94;;;17.28
55038;BMP280;40937;53.594;10.034;2023-08-06T07:21:05;100704.97;;;17.30
55038;BMP280;40937;53.594;10.034;2023-08-06T07:23:33;100707.59;;;17.35
55038;BMP280;40937;53.594;10.034;2023-08-06T07:26:00;100708.34;;;17.40
55038;BMP280;40937;53.594;10.034;2023-08-06T07:28:27;100707.84;;;17.38
55038;BMP280;40937;53.594;10.034;2023-08-06T07:30:54;100703.59;;;17.37
55038;BMP280;40937;53.594;10.034;2023-08-06T07:33:22;100699.91;;;17.33
55038;BMP280;40937;53.594;10.034;2023-08-06T07:35:50;100695.69;;;17.27
55038;BMP280;40937;53.594;10.034;2023-08-06T07:38:18;100698.34;;;17.27
55038;BMP280;40937;53.594;10.034;2023-08-06T07:40:45;100706.31;;;17.32
55038;BMP280;40937;53.594;10.034;2023-08-06T07:43:12;100708.38;;;17.35
55038;BMP280;40937;53.594;10.034;2023-08-06T07:45:40;100712.59;;;17.42
55038;BMP280;40937;53.594;10.034;2023-08-06T07:48:07;100710.47;;;17.44
55038;BMP280;40937;53.594;10.034;2023-08-06T07:50:35;100710.91;;;17.51
55038;BMP280;40937;53.594;10.034;2023-08-06T07:53:03;100710.41;;;17.49
55038;BMP280;40937;53.594;10.034;2023-08-06T07:55:30;100712.50;;;17.52
55038;BMP280;40937;53.594;10.034;2023-08-06T07:57:58;100708.78;;;17.53
55038;BMP280;40937;53.594;10.034;2023-08-06T08:00:25;100705.03;;;17.54
55038;BMP280;40937;53.594;10.034;2023-08-06T08:02:52;100710.38;;;17.54
55038;BMP280;40937;53.594;10.034;2023-08-06T08:05:20;100707.97;;;17.52
55038;BMP280;40937;53.594;10.034;2023-08-06T08:07:47;100705.31;;;17.52
55038;BMP280;40937;53.594;10.034;2023-08-06T08:10:16;100706.59;;;17.55
55038;BMP280;40937;53.594;10.034;2023-08-06T08:12:44;100702.88;;;17.56
55038;BMP280;40937;53.594;10.034;2023-08-06T08:15:13;100704.19;;;17.58
55038;BMP280;40937;53.594;10.034;2023-08-06T08:17:40;100700.94;;;17.61
55038;BMP280;40937;53.594;10.034;2023-08-06T08:20:08;100701.75;;;17.62
55038;BMP280;40937;53.594;10.034;2023-08-06T08:22:36;100700.63;;;17.68
55038;BMP280;40937;53.594;10.034;2023-08-06T08:25:03;100697.66;;;17.70
55038;BMP280;40937;53.594;10.034;2023-08-06T08:27:32;100691.56;;;17.64
55038;BMP280;40937;53.594;10.034;2023-08-06T08:29:59;100701.06;;;17.75
55038;BMP280;40937;53.594;10.034;2023-08-06T08:32:27;100690.84;;;17.83
55038;BMP280;40937;53.594;10.034;2023-08-06T08:34:54;100688.25;;;17.77
55038;BMP280;40937;53.594;10.034;2023-08-06T08:37:22;100689.84;;;17.78
55038;BMP280;40937;53.594;10.034;2023-08-06T08:39:50;100688.81;;;17.74
55038;BMP280;40937;53.594;10.034;2023-08-06T08:42:18;100695.16;;;17.78
55038;BMP280;40937;53.594;10.034;2023-08-06T08:44:47;100695.16;;;17.78
55038;BMP280;40937;53.594;10.034;2023-08-06T08:47:15;100693.13;;;17.70
55038;BMP280;40937;53.594;10.034;2023-08-06T08:49:43;100682.38;;;17.75
55038;BMP280;40937;53.594;10.034;2023-08-06T08:52:11;100694.59;;;17.81
55038;BMP280;40937;53.594;10.034;2023-08-06T08:54:41;100694.59;;;17.81
55038;BMP280;40937;53.594;10.034;2023-08-06T08:57:10;100686.53;;;17.87
55038;BMP280;40937;53.594;10.034;2023-08-06T08:59:37;100691.13;;;17.81
55038;BMP280;40937;53.594;10.034;2023-08-06T09:02:08;100685.31;;;17.79
55038;BMP280;40937;53.594;10.034;2023-08-06T09:04:37;100678.84;;;17.80
55038;BMP280;40937;53.594;10.034;2023-08-06T09:07:05;100685.78;;;17.81
55038;BMP280;40937;53.594;10.034;2023-08-06T09:09:35;100681.78;;;17.84
55038;BMP280;40937;53.594;10.034;2023-08-06T09:12:14;100678.56;;;17.81
55038;BMP280;40937;53.594;10.034;2023-08-06T09:14:42;100669.22;;;17.84
55038;BMP280;40937;53.594;10.034;2023-08-06T09:17:11;100670.53;;;17.87
55038;BMP280;40937;53.594;10.034;2023-08-06T09:19:42;100679.81;;;17.89
55038;BMP280;40937;53.594;10.034;2023-08-06T09:22:12;100683.56;;;17.88
55038;BMP280;40937;53.594;10.034;2023-08-06T09:24:41;100687.06;;;17.89
55038;BMP280;40937;53.594;10.034;2023-08-06T09:27:11;100691.81;;;17.92
55038;BMP280;40937;53.594;10.034;2023-08-06T09:29:40;100691.53;;;17.93
55038;BMP280;40937;53.594;10.034;2023-08-06T09:32:09;100693.47;;;17.88
55038;BMP280;40937;53.594;10.034;2023-08-06T09:34:39;100693.72;;;17.86
55038;BMP280;40937;53.594;10.034;2023-08-06T09:37:08;100696.13;;;17.88
55038;BMP280;40937;53.594;10.034;2023-08-06T09:39:40;100689.72;;;17.89
55038;BMP280;40937;53.594;10.034;2023-08-06T09:42:07;100691.53;;;17.93
55038;BMP280;40937;53.594;10.034;2023-08-06T09:44:35;100692.88;;;17.91
55038;BMP280;40937;53.594;10.034;2023-08-06T09:47:03;100697.22;;;17.87
55038;BMP280;40937;53.594;10.034;2023-08-06T09:49:42;100690.22;;;17.91
55038;BMP280;40937;53.594;10.034;2023-08-06T09:52:12;100691.53;;;17.93
55038;BMP280;40937;53.594;10.034;2023-08-06T09:54:40;100686.97;;;17.94
55038;BMP280;40937;53.594;10.034;2023-08-06T09:57:07;100682.19;;;17.91
55038;BMP280;40937;53.594;10.034;2023-08-06T09:59:37;100684.09;;;17.90
55038;BMP280;40937;53.594;10.034;2023-08-06T10:02:12;100680.03;;;17.93
55038;BMP280;40937;53.594;10.034;2023-08-06T10:04:42;100683.00;;;17.91
55038;BMP280;40937;53.594;10.034;2023-08-06T10:07:11;100678.47;;;17.92
55038;BMP280;40937;53.594;10.034;2023-08-06T10:09:38;100683.47;;;17.98
55038;BMP280;40937;53.594;10.034;2023-08-06T10:12:06;100679.47;;;17.96
55038;BMP280;40937;53.594;10.034;2023-08-06T10:14:35;100679.47;;;17.96
55038;BMP280;40937;53.594;10.034;2023-08-06T10:17:04;100680.28;;;17.96
55038;BMP280;40937;53.594;10.034;2023-08-06T10:19:32;100678.41;;;17.97
55038;BMP280;40937;53.594;10.034;2023-08-06T10:22:11;100669.38;;;17.93
55038;BMP280;40937;53.594;10.034;2023-08-06T10:24:51;100676.78;;;17.96
55038;BMP280;40937;53.594;10.034;2023-08-06T10:27:20;100678.41;;;17.97
55038;BMP280;40937;53.594;10.034;2023-08-06T10:29:48;100675.25;;;17.90
55038;BMP280;40937;53.594;10.034;2023-08-06T10:32:16;100672.31;;;17.91
55038;BMP280;40937;53.594;10.034;2023-08-06T10:34:55;100674.13;;;17.96
55038;BMP280;40937;53.594;10.034;2023-08-06T10:37:34;100673.53;;;17.99
55038;BMP280;40937;53.594;10.034;2023-08-06T10:40:02;100675.81;;;17.92
55038;BMP280;40937;53.594;10.034;2023-08-06T10:42:30;100669.94;;;17.90
55038;BMP280;40937;53.594;10.034;2023-08-06T10:45:17;100670.94;;;17.94
55038;BMP280;40937;53.594;10.034;2023-08-06T10:47:45;100665.41;;;17.90
55038;BMP280;40937;53.594;10.034;2023-08-06T10:50:14;100670.47;;;17.92
55038;BMP280;40937;53.594;10.034;2023-08-06T10:52:44;100661.06;;;17.94
55038;BMP280;40937;53.594;10.034;2023-08-06T10:55:13;100658.94;;;17.96
55038;BMP280;40937;53.594;10.034;2023-08-06T10:57:40;100661.88;;;17.95
55038;BMP280;40937;53.594;10.034;2023-08-06T11:00:08;100659.50;;;17.93
55038;BMP280;40937;53.594;10.034;2023-08-06T11:02:38;100649.69;;;17.89
55038;BMP280;40937;53.594;10.034;2023-08-06T11:05:06;100647.22;;;17.92
55038;BMP280;40937;53.594;10.034;2023-08-06T11:07:34;100644.84;;;17.91
55038;BMP280;40937;53.594;10.034;2023-08-06T11:10:05;100641.09;;;17.92
55038;BMP280;40937;53.594;10.034;2023-08-06T11:12:32;100648.03;;;17.93
55038;BMP280;40937;53.594;10.034;2023-08-06T11:15:00;100645.34;;;17.93
55038;BMP280;40937;53.594;10.034;2023-08-06T11:17:29;100646.72;;;17.90
55038;BMP280;40937;53.594;10.034;2023-08-06T11:19:59;100638.91;;;17.94
55038;BMP280;40937;53.594;10.034;2023-08-06T11:22:26;100630.63;;;17.95
55038;BMP280;40937;53.594;10.034;2023-08-06T11:24:54;100631.88;;;18.03
55038;BMP280;40937;53.594;10.034;2023-08-06T11:27:26;100633.22;;;18.00
55038;BMP280;40937;53.594;10.034;2023-08-06T11:29:53;100633.81;;;17.97
55038;BMP280;40937;53.594;10.034;2023-08-06T11:32:21;100631.09;;;18.02
55038;BMP280;40937;53.594;10.034;2023-08-06T11:34:48;100636.19;;;17.99
55038;BMP280;40937;53.594;10.034;2023-08-06T11:37:15;100630.84;;;17.99
55038;BMP280;40937;53.594;10.034;2023-08-06T11:39:46;100632.75;;;17.98
55038;BMP280;40937;53.594;10.034;2023-08-06T11:42:14;100635.31;;;18.09
55038;BMP280;40937;53.594;10.034;2023-08-06T11:44:42;100634.47;;;18.08
55038;BMP280;40937;53.594;10.034;2023-08-06T11:47:13;100638.44;;;18.11
55038;BMP280;40937;53.594;10.034;2023-08-06T11:49:43;100642.56;;;18.03
55038;BMP280;40937;53.594;10.034;2023-08-06T11:52:16;100642.06;;;18.01
55038;BMP280;40937;53.594;10.034;2023-08-06T11:54:59;100633.22;;;18.00
55038;BMP280;40937;53.594;10.034;2023-08-06T11:57:29;100636.63;;;18.06
55038;BMP280;40937;53.594;10.034;2023-08-06T12:00:02;100630.72;;;18.09
55038;BMP280;40937;53.594;10.034;2023-08-06T12:02:39;100632.84;;;18.12
55038;BMP280;40937;53.594;10.034;2023-08-06T12:05:10;100628.50;;;18.16
55038;BMP280;40937;53.594;10.034;2023-08-06T12:07:39;100624.22;;;18.15
55038;BMP280;40937;53.594;10.034;2023-08-06T12:10:07;100619.97;;;18.14
55038;BMP280;40937;53.594;10.034;2023-08-06T12:12:35;100622.63;;;18.14
55038;BMP280;40937;53.594;10.034;2023-08-06T12:15:06;100616.72;;;18.17
55038;BMP280;40937;53.594;10.034;2023-08-06T12:17:34;100614.56;;;18.19
55038;BMP280;40937;53.594;10.034;2023-08-06T12:20:01;100616.09;;;18.26
55038;BMP280;40937;53.594;10.034;2023-08-06T12:22:30;100607.53;;;18.23
55038;BMP280;40937;53.594;10.034;2023-08-06T12:25:01;100604.59;;;18.25
55038;BMP280;40937;53.594;10.034;2023-08-06T12:27:29;100600.06;;;18.26
55038;BMP280;40937;53.594;10.034;2023-08-06T12:29:56;100605.91;;;18.28
55038;BMP280;40937;53.594;10.034;2023-08-06T12:32:25;100605.13;;;18.27
55038;BMP280;40937;53.594;10.034;2023-08-06T12:34:53;100602.38;;;18.32
55038;BMP280;40937;53.594;10.034;2023-08-06T12:37:20;100597.22;;;18.36
55038;BMP280;40937;53.594;10.034;2023-08-06T12:39:49;100600.31;;;18.43
55038;BMP280;40937;53.594;10.034;2023-08-06T12:42:16;100605.16;;;18.41
55038;BMP280;40937;53.594;10.034;2023-08-06T12:44:43;100604.00;;;18.47
55038;BMP280;40937;53.594;10.034;2023-08-06T12:47:11;100598.34;;;18.49
55038;BMP280;40937;53.594;10.034;2023-08-06T12:49:39;100591.94;;;18.50
55038;BMP280;40937;53.594;10.034;2023-08-06T12:52:07;100595.34;;;18.55
55038;BMP280;40937;53.594;10.034;2023-08-06T12:54:35;100593.88;;;18.63
55038;BMP280;40937;53.594;10.034;2023-08-06T12:57:04;100595.38;;;18.69
55038;BMP280;40937;53.594;10.034;2023-08-06T12:59:32;100589.16;;;18.74
55038;BMP280;40937;53.594;10.034;2023-08-06T13:02:02;100596.00;;;18.80
55038;BMP280;40937;53.594;10.034;2023-08-06T13:04:29;100586.84;;;18.81
55038;BMP280;40937;53.594;10.034;2023-08-06T13:06:58;100591.22;;;18.77
55038;BMP280;40937;53.594;10.034;2023-08-06T13:09:25;100585.78;;;18.82
55038;BMP280;40937;53.594;10.034;2023-08-06T13:11:53;100586.56;;;18.82
55038;BMP280;40937;53.594;10.034;2023-08-06T13:14:21;100585.69;;;18.87
55038;BMP280;40937;53.594;10.034;2023-08-06T13:16:48;100589.38;;;18.91
55038;BMP280;40937;53.594;10.034;2023-08-06T13:19:15;100585.53;;;18.97
55038;BMP280;40937;53.594;10.034;2023-08-06T13:22:01;100585.88;;;19.04
55038;BMP280;40937;53.594;10.034;2023-08-06T13:24:29;100583.75;;;19.06
55038;BMP280;40937;53.594;10.034;2023-08-06T13:26:57;100586.78;;;19.14
55038;BMP280;40937;53.594;10.034;2023-08-06T13:29:25;100585.09;;;19.18
55038;BMP280;40937;53.594;10.034;2023-08-06T13:31:52;100583.94;;;19.24
55038;BMP280;40937;53.594;10.034;2023-08-06T13:34:20;100579.28;;;19.29
55038;BMP280;40937;53.594;10.034;2023-08-06T13:36:47;100579.75;;;19.32
55038;BMP280;40937;53.594;10.034;2023-08-06T13:39:17;100574.00;;;19.38
55038;BMP280;40937;53.594;10.034;2023-08-06T13:41:45;100576.28;;;19.45
55038;BMP280;40937;53.594;10.034;2023-08-06T13:44:13;100584.53;;;19.48
55038;BMP280;40937;53.594;10.034;2023-08-06T13:46:42;100578.56;;;19.52
55038;BMP280;40937;53.594;10.034;2023-08-06T13:49:09;100576.38;;;19.54
55038;BMP280;40937;53.594;10.034;2023-08-06T13:51:36;100581.13;;;19.57
55038;BMP280;40937;53.594;10.034;2023-08-06T13:54:04;100575.78;;;19.57